Time;durP1;ratioP1;P1;durP2;ratioP2;P2;SDS_P1;SDS_P2;PMS_P1;PMS_P2;Temp;Humidity;BMP_temperature;BMP_pressure;BME280_temperature;BME280_humidity;BME280_pressure;Samples;Min_cycle;Max_cycle;Signal;HPM_P1;HPM_P2
2022/09/10 00:01:13;;;;;;;1.27;0.90;;;;;;;;;;5092158;28;20526;-67
2022/09/10 00:03:42;;;;;;;0.83;0.67;;;;;;;;;;5092763;28;20473;-68
2022/09/10 00:06:10;;;;;;;1.70;1.00;;;;;;;;;;5092511;28;20864;-68
2022/09/10 00:08:38;;;;;;;1.10;0.87;;;;;;;;;;5092260;28;20950;-68
2022/09/10 00:11:06;;;;;;;1.80;0.80;;;;;;;;;;5092157;28;20551;-67
2022/09/10 00:13:35;;;;;;;1.10;0.87;;;;;;;;;;5092269;28;20453;-67
2022/09/10 00:16:03;;;;;;;2.97;1.23;;;;;;;;;;5092612;28;20449;-68
2022/09/10 00:18:30;;;;;;;1.67;1.00;;;;;;;;;;5091856;28;20456;-68
2022/09/10 00:20:58;;;;;;;2.20;0.80;;;;;;;;;;5091935;28;20487;-68
2022/09/10 00:23:26;;;;;;;1.67;0.73;;;;;;;;;;5092214;28;20457;-68
2022/09/10 00:25:54;;;;;;;2.70;0.97;;;;;;;;;;5091983;28;20783;-68
2022/09/10 00:28:23;;;;;;;2.50;1.00;;;;;;;;;;5091853;28;20543;-68
2022/09/10 00:30:53;;;;;;;1.43;0.90;;;;;;;;;;5092470;28;20448;-68
2022/09/10 00:33:21;;;;;;;2.40;1.07;;;;;;;;;;5092191;28;20441;-68
2022/09/10 00:35:49;;;;;;;1.00;0.80;;;;;;;;;;5092206;28;20462;-68
2022/09/10 00:38:17;;;;;;;1.57;0.80;;;;;;;;;;5091490;28;20448;-68
2022/09/10 00:40:44;;;;;;;0.80;0.60;;;;;;;;;;5092186;28;20480;-67
2022/09/10 00:43:12;;;;;;;4.67;0.60;;;;;;;;;;5091551;28;20452;-68
2022/09/10 00:45:39;;;;;;;2.23;0.60;;;;;;;;;;5092056;28;20448;-68
2022/09/10 00:48:14;;;;;;;2.40;0.73;;;;;;;;;;5091197;28;20798;-67
2022/09/10 00:50:42;;;;;;;1.10;0.80;;;;;;;;;;5091708;28;20909;-68
2022/09/10 00:53:11;;;;;;;0.97;0.80;;;;;;;;;;5091762;28;20443;-68
2022/09/10 00:55:40;;;;;;;0.80;0.60;;;;;;;;;;5091759;28;20448;-69
2022/09/10 00:58:08;;;;;;;3.23;0.67;;;;;;;;;;5091012;28;20455;-68
2022/09/10 01:00:36;;;;;;;3.30;1.20;;;;;;;;;;5091607;28;20492;-69
2022/09/10 01:03:06;;;;;;;1.37;0.87;;;;;;;;;;5091175;28;20449;-68
2022/09/10 01:05:36;;;;;;;0.90;0.70;;;;;;;;;;5091781;28;20809;-69
2022/09/10 01:08:03;;;;;;;0.80;0.57;;;;;;;;;;5091176;28;20524;-68
2022/09/10 01:10:33;;;;;;;2.13;0.90;;;;;;;;;;5091294;28;20453;-68
2022/09/10 01:13:14;;;;;;;0.90;0.60;;;;;;;;;;5090415;28;20550;-68
2022/09/10 01:15:48;;;;;;;1.23;0.83;;;;;;;;;;5091256;28;20923;-68
2022/09/10 01:18:21;;;;;;;1.00;0.60;;;;;;;;;;5090435;28;20532;-68
2022/09/10 01:20:55;;;;;;;1.00;0.63;;;;;;;;;;5091605;28;20487;-68
2022/09/10 01:23:40;;;;;;;0.80;0.53;;;;;;;;;;5091216;28;20992;-69
2022/09/10 01:26:11;;;;;;;0.90;0.70;;;;;;;;;;5091068;28;20472;-68
2022/09/10 01:28:41;;;;;;;1.93;0.60;;;;;;;;;;5090799;28;20539;-69
2022/09/10 01:31:11;;;;;;;0.80;0.63;;;;;;;;;;5090698;28;20456;-69
2022/09/10 01:33:41;;;;;;;1.97;0.70;;;;;;;;;;5091154;28;20459;-69
2022/09/10 01:36:11;;;;;;;1.73;1.00;;;;;;;;;;5090623;28;20452;-69
2022/09/10 01:38:40;;;;;;;0.93;0.70;;;;;;;;;;5090785;28;20502;-69
2022/09/10 01:41:07;;;;;;;1.10;0.70;;;;;;;;;;5090610;28;20484;-68
2022/09/10 01:43:35;;;;;;;1.33;0.70;;;;;;;;;;5090965;28;20523;-68
2022/09/10 01:46:13;;;;;;;1.03;0.93;;;;;;;;;;5090313;28;20459;-69
2022/09/10 01:48:52;;;;;;;1.63;0.80;;;;;;;;;;5090267;28;20444;-69
2022/09/10 01:51:23;;;;;;;0.80;0.50;;;;;;;;;;5090625;28;20456;-69
2022/09/10 01:54:03;;;;;;;1.00;0.67;;;;;;;;;;5090983;28;20510;-69
2022/09/10 01:56:34;;;;;;;0.70;0.50;;;;;;;;;;5091003;28;20455;-68
2022/09/10 01:59:04;;;;;;;1.97;0.87;;;;;;;;;;5089764;28;20939;-69
2022/09/10 02:01:37;;;;;;;4.77;0.80;;;;;;;;;;5090881;28;20477;-68
2022/09/10 02:04:06;;;;;;;1.00;0.70;;;;;;;;;;5090386;28;20823;-68
2022/09/10 02:06:36;;;;;;;1.10;0.60;;;;;;;;;;5090551;28;20525;-68
2022/09/10 02:09:04;;;;;;;1.30;0.50;;;;;;;;;;5089726;28;20861;-68
2022/09/10 02:11:32;;;;;;;0.70;0.50;;;;;;;;;;5090307;28;20463;-69
2022/09/10 02:13:59;;;;;;;0.73;0.50;;;;;;;;;;5090080;28;20456;-69
2022/09/10 02:16:30;;;;;;;1.00;0.70;;;;;;;;;;5090682;28;20452;-69
2022/09/10 02:18:59;;;;;;;1.00;0.70;;;;;;;;;;5089705;28;20494;-69
2022/09/10 02:21:26;;;;;;;1.43;0.63;;;;;;;;;;5090328;28;21044;-69
2022/09/10 02:23:56;;;;;;;0.87;0.60;;;;;;;;;;5076848;28;20447;-70
2022/09/10 02:26:24;;;;;;;1.13;0.80;;;;;;;;;;5090433;28;20477;-69
2022/09/10 02:28:53;;;;;;;1.23;0.50;;;;;;;;;;5090267;28;20465;-69
2022/09/10 02:31:21;;;;;;;1.10;0.73;;;;;;;;;;5090755;28;20448;-69
2022/09/10 02:33:48;;;;;;;0.87;0.60;;;;;;;;;;5090664;28;20449;-69
2022/09/10 02:36:16;;;;;;;1.50;0.87;;;;;;;;;;5090289;28;20460;-69
2022/09/10 02:38:44;;;;;;;1.10;0.60;;;;;;;;;;5090025;28;20449;-69
2022/09/10 02:41:11;;;;;;;1.30;0.70;;;;;;;;;;5089653;28;20484;-69
2022/09/10 02:43:38;;;;;;;1.10;0.70;;;;;;;;;;5089948;28;20947;-69
2022/09/10 02:46:06;;;;;;;0.80;0.60;;;;;;;;;;5089906;28;20471;-69
2022/09/10 02:48:33;;;;;;;1.33;0.63;;;;;;;;;;5089846;28;20922;-69
2022/09/10 02:51:01;;;;;;;1.13;0.67;;;;;;;;;;5089631;28;20444;-69
2022/09/10 02:53:30;;;;;;;1.07;0.70;;;;;;;;;;5090477;28;20498;-69
2022/09/10 02:55:59;;;;;;;1.47;0.80;;;;;;;;;;5089587;28;20460;-69
2022/09/10 02:58:27;;;;;;;0.90;0.60;;;;;;;;;;5089657;28;20818;-69
2022/09/10 03:00:54;;;;;;;3.47;0.90;;;;;;;;;;5089666;28;20507;-69
2022/09/10 03:03:21;;;;;;;2.60;0.90;;;;;;;;;;5090164;28;20495;-68
2022/09/10 03:05:48;;;;;;;1.10;0.57;;;;;;;;;;5090465;28;20958;-69
2022/09/10 03:08:15;;;;;;;2.00;0.70;;;;;;;;;;5089526;28;20453;-69
2022/09/10 03:10:44;;;;;;;3.40;0.70;;;;;;;;;;5089901;28;20988;-69
2022/09/10 03:13:11;;;;;;;1.47;0.73;;;;;;;;;;5089819;28;20455;-71
2022/09/10 03:15:39;;;;;;;2.13;0.80;;;;;;;;;;5089713;28;20463;-69
2022/09/10 03:18:08;;;;;;;0.80;0.60;;;;;;;;;;5089189;28;20445;-69
2022/09/10 03:20:35;;;;;;;1.10;0.87;;;;;;;;;;5089875;28;20995;-69
2022/09/10 03:23:02;;;;;;;0.90;0.63;;;;;;;;;;5089775;28;20472;-69
2022/09/10 03:25:29;;;;;;;2.13;0.87;;;;;;;;;;5076320;28;20924;-69
2022/09/10 03:27:58;;;;;;;1.00;0.70;;;;;;;;;;5089089;28;20499;-69
2022/09/10 03:30:25;;;;;;;1.00;0.70;;;;;;;;;;5089760;28;20449;-69
2022/09/10 03:32:53;;;;;;;2.40;1.00;;;;;;;;;;5089307;28;20449;-70
2022/09/10 03:35:21;;;;;;;0.90;0.67;;;;;;;;;;5091912;28;20462;-68
2022/09/10 03:37:48;;;;;;;1.43;0.73;;;;;;;;;;5093013;28;20441;-68
2022/09/10 03:40:15;;;;;;;0.80;0.57;;;;;;;;;;5093024;28;20509;-68
2022/09/10 03:42:43;;;;;;;0.80;0.70;;;;;;;;;;5093229;28;20462;-68
2022/09/10 03:45:12;;;;;;;1.40;0.70;;;;;;;;;;5092843;28;20452;-69
2022/09/10 03:47:39;;;;;;;1.20;0.77;;;;;;;;;;5092549;28;20510;-69
2022/09/10 03:50:07;;;;;;;1.30;0.90;;;;;;;;;;5092769;28;20459;-69
2022/09/10 03:52:34;;;;;;;1.20;0.73;;;;;;;;;;5093147;28;20483;-69
2022/09/10 03:55:01;;;;;;;1.30;0.80;;;;;;;;;;5092544;28;20958;-69
2022/09/10 03:57:29;;;;;;;0.90;0.60;;;;;;;;;;5092715;28;20453;-69
2022/09/10 03:59:56;;;;;;;4.93;1.10;;;;;;;;;;5092507;28;20438;-69
2022/09/10 04:02:25;;;;;;;1.67;1.13;;;;;;;;;;5092838;28;20483;-69
2022/09/10 04:04:52;;;;;;;1.03;0.77;;;;;;;;;;5092996;28;20463;-71
2022/09/10 04:07:20;;;;;;;0.90;0.73;;;;;;;;;;5092964;28;20452;-69
2022/09/10 04:09:47;;;;;;;1.00;0.70;;;;;;;;;;5092554;28;20457;-69
2022/09/10 04:12:15;;;;;;;2.10;1.20;;;;;;;;;;5092355;28;20449;-69
2022/09/10 04:14:44;;;;;;;1.30;0.90;;;;;;;;;;5092528;28;20908;-69
2022/09/10 04:17:11;;;;;;;1.20;0.80;;;;;;;;;;5092148;28;20449;-69
2022/09/10 04:19:40;;;;;;;1.30;0.87;;;;;;;;;;5092193;28;20443;-69
2022/09/10 04:22:07;;;;;;;2.20;1.07;;;;;;;;;;5092217;28;20484;-69
2022/09/10 04:24:34;;;;;;;1.30;0.70;;;;;;;;;;5092671;28;20452;-68
2022/09/10 04:27:01;;;;;;;2.17;0.90;;;;;;;;;;5091565;28;20483;-69
2022/09/10 04:29:30;;;;;;;1.60;0.90;;;;;;;;;;5091965;28;20484;-69
2022/09/10 04:31:57;;;;;;;1.07;0.80;;;;;;;;;;5078947;28;20768;-69
2022/09/10 04:34:24;;;;;;;1.30;0.80;;;;;;;;;;5092169;28;20932;-69
2022/09/10 04:36:53;;;;;;;1.00;0.80;;;;;;;;;;5092331;28;20441;-69
2022/09/10 04:39:20;;;;;;;1.30;1.00;;;;;;;;;;5091874;28;20445;-69
2022/09/10 04:41:47;;;;;;;1.10;0.80;;;;;;;;;;5092571;28;20491;-69
2022/09/10 04:44:17;;;;;;;0.90;0.70;;;;;;;;;;5091814;28;20452;-69
2022/09/10 04:46:44;;;;;;;0.90;0.60;;;;;;;;;;5092007;28;20457;-69
2022/09/10 04:49:11;;;;;;;1.20;0.93;;;;;;;;;;5091212;28;20563;-69
2022/09/10 04:51:38;;;;;;;1.30;0.87;;;;;;;;;;5092024;28;20444;-69
2022/09/10 04:54:07;;;;;;;1.37;0.80;;;;;;;;;;5091574;28;20476;-70
2022/09/10 04:56:35;;;;;;;2.07;1.20;;;;;;;;;;5092172;28;20509;-70
2022/09/10 04:59:02;;;;;;;1.47;0.97;;;;;;;;;;5090919;28;21211;-70
2022/09/10 05:01:30;;;;;;;5.80;0.97;;;;;;;;;;5091973;28;20499;-70
2022/09/10 05:03:57;;;;;;;2.07;1.53;;;;;;;;;;5091420;28;20449;-69
2022/09/10 05:06:24;;;;;;;1.10;0.60;;;;;;;;;;5091655;28;20463;-70
2022/09/10 05:08:51;;;;;;;0.93;0.67;;;;;;;;;;5091331;28;20959;-69
2022/09/10 05:11:20;;;;;;;1.33;0.83;;;;;;;;;;5091925;28;20453;-70
2022/09/10 05:13:47;;;;;;;1.13;0.73;;;;;;;;;;5091539;28;20498;-70
2022/09/10 05:16:14;;;;;;;1.10;0.70;;;;;;;;;;5091307;28;20444;-70
2022/09/10 05:18:41;;;;;;;1.67;0.80;;;;;;;;;;5090940;28;20462;-69
2022/09/10 05:21:09;;;;;;;1.40;0.90;;;;;;;;;;5091103;28;20996;-69
2022/09/10 05:23:37;;;;;;;0.90;0.67;;;;;;;;;;5091346;28;21000;-70
2022/09/10 05:26:04;;;;;;;1.10;0.60;;;;;;;;;;5091011;28;20863;-70
2022/09/10 05:28:33;;;;;;;0.97;0.67;;;;;;;;;;5091077;28;20448;-70
2022/09/10 05:31:00;;;;;;;1.00;0.80;;;;;;;;;;5090794;28;20466;-70
2022/09/10 05:33:27;;;;;;;0.77;0.60;;;;;;;;;;5091145;28;20453;-70
2022/09/10 05:35:54;;;;;;;1.10;0.70;;;;;;;;;;5091076;28;20464;-70
2022/09/10 05:38:22;;;;;;;1.80;0.90;;;;;;;;;;5090824;28;20813;-70
2022/09/10 05:40:51;;;;;;;1.20;0.80;;;;;;;;;;5091483;28;20480;-70
2022/09/10 05:43:18;;;;;;;1.30;0.90;;;;;;;;;;5077944;28;20815;-70
2022/09/10 05:45:46;;;;;;;1.10;0.60;;;;;;;;;;5090906;28;20459;-70
2022/09/10 05:48:13;;;;;;;2.60;0.60;;;;;;;;;;5090091;28;20455;-70
2022/09/10 05:50:40;;;;;;;1.47;0.70;;;;;;;;;;5090626;28;20448;-71
2022/09/10 05:53:09;;;;;;;0.80;0.60;;;;;;;;;;5090853;28;20794;-70
2022/09/10 05:55:36;;;;;;;0.97;0.63;;;;;;;;;;5090811;28;20452;-70
2022/09/10 05:58:03;;;;;;;3.27;0.93;;;;;;;;;;5089770;28;20810;-70
2022/09/10 06:00:30;;;;;;;1.10;0.93;;;;;;;;;;5090589;28;20437;-71
2022/09/10 06:02:58;;;;;;;5.23;0.77;;;15.20;99.90;;;;;;5090307;28;21334;-71
2022/09/10 06:05:25;;;;;;;1.23;0.90;;;15.10;99.90;;;;;;5090412;28;20461;-71
2022/09/10 06:07:52;;;;;;;1.97;0.80;;;15.10;99.90;;;;;;5090432;28;20453;-72
2022/09/10 06:10:19;;;;;;;0.90;0.77;;;15.10;99.90;;;;;;5090609;28;20958;-71
2022/09/10 06:12:46;;;;;;;0.90;0.70;;;15.10;99.90;;;;;;5090590;28;20502;-71
2022/09/10 06:15:14;;;;;;;1.27;0.80;;;15.10;99.90;;;;;;5089946;28;20939;-70
2022/09/10 06:17:40;;;;;;;1.30;0.80;;;15.10;99.90;;;;;;5090205;28;20449;-71
2022/09/10 06:20:09;;;;;;;1.00;0.67;;;15.10;99.90;;;;;;5090352;28;20445;-71
2022/09/10 06:22:36;;;;;;;0.90;0.63;;;15.10;99.90;;;;;;5090512;28;20512;-70
2022/09/10 06:25:04;;;;;;;0.93;0.67;;;15.20;99.90;;;;;;5090107;28;20440;-71
2022/09/10 06:27:31;;;;;;;0.83;0.60;;;15.20;99.90;;;;;;5089909;28;20971;-71
2022/09/10 06:29:58;;;;;;;1.30;0.70;;;15.30;99.90;;;;;;5089734;28;20452;-71
2022/09/10 06:32:25;;;;;;;0.87;0.60;;;15.40;99.90;;;;;;5090330;28;20459;-71
2022/09/10 06:34:52;;;;;;;1.97;0.80;;;15.40;99.90;;;;;;5090547;28;20462;-71
2022/09/10 06:37:20;;;;;;;1.97;0.60;;;15.40;99.90;;;;;;5090159;28;20445;-71
2022/09/10 06:39:46;;;;;;;1.57;0.70;;;15.40;99.90;;;;;;5090351;28;20451;-71
2022/09/10 06:42:13;;;;;;;1.33;0.80;;;15.50;99.90;;;;;;5089946;28;20494;-71
2022/09/10 06:44:40;;;;;;;1.77;0.80;;;15.50;99.90;;;;;;5089879;28;20813;-71
2022/09/10 06:47:07;;;;;;;1.63;0.60;;;15.60;99.90;;;;;;5089970;28;20445;-71
2022/09/10 06:49:35;;;;;;;0.90;0.70;;;15.60;99.90;;;;;;5089868;28;20448;-71
2022/09/10 06:52:02;;;;;;;2.00;0.70;;;15.70;99.90;;;;;;5089849;28;20460;-71
2022/09/10 06:54:30;;;;;;;1.10;0.83;;;15.70;99.90;;;;;;5090164;28;20453;-71
2022/09/10 06:56:57;;;;;;;1.90;0.97;;;15.90;99.90;;;;;;5089693;28;20794;-73
2022/09/10 06:59:24;;;;;;;1.00;0.63;;;16.00;99.90;;;;;;5089769;28;20445;-71
2022/09/10 07:01:51;;;;;;;0.90;0.70;;;16.00;99.90;;;;;;5090491;28;20831;-71
2022/09/10 07:04:18;;;;;;;1.20;0.83;;;16.00;99.90;;;;;;5090040;28;20453;-72
2022/09/10 07:06:45;;;;;;;1.83;0.60;;;16.10;99.90;;;;;;5090165;28;20449;-72
2022/09/10 07:09:12;;;;;;;1.00;0.60;;;16.10;99.90;;;;;;5089701;28;20782;-72
2022/09/10 07:11:40;;;;;;;1.10;0.70;;;16.10;99.90;;;;;;5093755;28;20912;-71
2022/09/10 07:14:07;;;;;;;1.00;0.60;;;16.10;99.90;;;;;;5079870;28;20453;-71
2022/09/10 07:16:34;;;;;;;0.77;0.60;;;16.10;99.90;;;;;;5094029;28;20445;-72
2022/09/10 07:19:01;;;;;;;2.00;0.80;;;16.20;99.90;;;;;;5093179;28;20452;-72
2022/09/10 07:21:29;;;;;;;0.80;0.50;;;16.10;99.90;;;;;;5093787;28;20456;-72
2022/09/10 07:23:57;;;;;;;1.00;0.70;;;16.20;99.90;;;;;;5093436;28;20577;-72
2022/09/10 07:26:24;;;;;;;0.80;0.60;;;16.40;99.90;;;;;;5093412;28;20815;-72
2022/09/10 07:28:53;;;;;;;1.10;0.70;;;16.40;99.90;;;;;;5093537;28;20527;-72
2022/09/10 07:31:22;;;;;;;1.30;0.67;;;16.40;99.90;;;;;;5093463;28;20452;-72
2022/09/10 07:33:50;;;;;;;0.93;0.67;;;16.30;99.90;;;;;;5093795;28;20453;-72
2022/09/10 07:36:18;;;;;;;1.43;0.90;;;16.30;99.90;;;;;;5093307;28;20999;-72
2022/09/10 07:38:45;;;;;;;0.90;0.63;;;16.30;99.90;;;;;;5093011;28;20449;-72
2022/09/10 07:41:14;;;;;;;0.90;0.60;;;16.30;99.90;;;;;;5093174;28;20711;-72
2022/09/10 07:43:42;;;;;;;0.80;0.50;;;16.40;99.90;;;;;;5093381;28;20513;-72
2022/09/10 07:46:13;;;;;;;2.10;1.27;;;16.60;99.90;;;;;;5092715;28;20523;-72
2022/09/10 07:48:40;;;;;;;0.60;0.40;;;16.60;99.90;;;;;;5092700;28;20451;-73
2022/09/10 07:51:09;;;;;;;0.77;0.50;;;16.60;99.90;;;;;;5092769;28;20532;-72
2022/09/10 07:53:37;;;;;;;1.40;0.50;;;16.40;99.90;;;;;;5093192;28;20455;-72
2022/09/10 07:56:05;;;;;;;2.50;0.80;;;16.30;99.90;;;;;;5092929;28;20457;-72
2022/09/10 07:58:34;;;;;;;0.73;0.50;;;16.20;99.90;;;;;;5092815;28;20456;-72
2022/09/10 08:01:06;;;;;;;0.70;0.50;;;16.30;99.90;;;;;;5091634;28;20433;-72
2022/09/10 08:03:34;;;;;;;1.57;0.50;;;16.30;99.90;;;;;;5092156;28;20487;-70
2022/09/10 08:06:01;;;;;;;0.90;0.70;;;16.30;99.90;;;;;;5088125;28;20998;-72
2022/09/10 08:08:30;;;;;;;2.30;1.13;;;16.40;99.90;;;;;;5092591;28;20848;-73
2022/09/10 08:11:07;;;;;;;1.70;0.87;;;16.50;99.90;;;;;;5092446;28;20755;-73
2022/09/10 08:13:35;;;;;;;1.53;0.90;;;16.70;99.90;;;;;;5092931;28;20444;-75
2022/09/10 08:16:05;;;;;;;2.10;0.80;;;16.80;99.90;;;;;;5091874;28;20441;-72
2022/09/10 08:18:34;;;;;;;1.00;0.60;;;16.90;99.90;;;;;;5092163;28;20437;-74
2022/09/10 08:21:01;;;;;;;0.80;0.60;;;16.90;99.90;;;;;;5091579;28;20434;-73
2022/09/10 08:23:28;;;;;;;0.93;0.57;;;16.90;99.90;;;;;;5092762;28;20543;-73
2022/09/10 08:25:57;;;;;;;5.60;0.77;;;;;;;;;;5092145;28;20449;-73
2022/09/10 08:28:24;;;;;;;0.90;0.60;;;;;;;;;;5091808;28;20445;-75
2022/09/10 08:31:01;;;;;;;0.97;0.70;;;;;;;;;;5092228;28;20445;-73
2022/09/10 08:33:28;;;;;;;0.90;0.67;;;;;;;;;;5091107;28;20510;-75
2022/09/10 08:35:57;;;;;;;0.90;0.70;;;;;;;;;;5091616;28;20449;-74
2022/09/10 08:38:25;;;;;;;1.53;0.60;;;;;;;;;;5091454;28;20441;-75
2022/09/10 08:40:55;;;;;;;1.10;0.60;;;;;;;;;;5092327;28;20436;-74
2022/09/10 08:43:27;;;;;;;1.10;0.50;;;;;;;;;;5092477;28;20468;-75
2022/09/10 08:45:55;;;;;;;1.00;0.60;;;;;;;;;;5092212;28;20490;-73
2022/09/10 08:48:23;;;;;;;1.90;0.93;;;;;;;;;;5091610;28;20436;-73
2022/09/10 08:50:53;;;;;;;1.97;0.60;;;;;;;;;;5092173;28;20445;-73
2022/09/10 08:53:25;;;;;;;0.80;0.50;;;;;;;;;;5091124;28;20448;-74
2022/09/10 08:55:55;;;;;;;2.00;0.50;;;;;;;;;;5091260;28;20481;-72
2022/09/10 08:58:24;;;;;;;1.23;0.50;;;;;;;;;;5091333;28;20984;-72
2022/09/10 09:00:53;;;;;;;0.97;0.60;;;;;;;;;;5091925;28;20437;-72
2022/09/10 09:03:22;;;;;;;0.97;0.53;;;;;;;;;;5091202;28;20516;-73
2022/09/10 09:05:50;;;;;;;0.83;0.53;;;;;;;;;;5090762;28;20460;-74
2022/09/10 09:08:20;;;;;;;1.97;0.93;;;;;;;;;;5090906;28;20674;-73
2022/09/10 09:10:50;;;;;;;3.73;1.10;;;;;;;;;;5085812;28;20452;-73
2022/09/10 09:13:27;;;;;;;0.70;0.50;;;;;;;;;;5089491;28;20453;-73
2022/09/10 09:16:00;;;;;;;1.27;0.50;;;;;;;;;;5088674;28;20528;-73
2022/09/10 09:18:30;;;;;;;0.77;0.50;;;;;;;;;;5088583;28;20474;-73
2022/09/10 09:20:58;;;;;;;0.80;0.57;;;;;;;;;;5089261;28;21225;-72
2022/09/10 09:23:28;;;;;;;1.87;0.80;;;;;;;;;;5088417;28;20507;-72
2022/09/10 09:26:01;;;;;;;0.70;0.70;;;;;;;;;;5088381;28;20448;-72
2022/09/10 09:28:34;;;;;;;0.73;0.60;;;;;;;;;;5086835;28;20498;-73
2022/09/10 09:31:04;;;;;;;2.10;0.60;;;;;;;;;;5088334;28;20452;-72
2022/09/10 09:33:32;;;;;;;2.00;0.60;;;;;;;;;;5087993;28;20480;-73
2022/09/10 09:36:01;;;;;;;1.63;0.60;;;;;;;;;;5088967;28;20968;-72
2022/09/10 09:38:31;;;;;;;1.37;1.03;;;;;;;;;;5078709;28;20475;-72
2022/09/10 09:41:06;;;;;;;2.83;0.50;;;;;;;;;;5087669;28;20470;-73
2022/09/10 09:43:35;;;;;;;1.37;0.70;;;;;;;;;;5087920;28;20511;-73
2022/09/10 09:46:03;;;;;;;1.73;0.70;;;;;;;;;;5087010;28;20460;-73
2022/09/10 09:48:35;;;;;;;2.50;0.90;;;;;;;;;;5088018;28;20457;-73
2022/09/10 09:51:03;;;;;;;1.40;0.67;;;;;;;;;;5087422;28;20456;-73
2022/09/10 09:53:31;;;;;;;1.77;0.90;;;;;;;;;;5088192;28;20924;-73
2022/09/10 09:56:00;;;;;;;0.90;0.50;;;;;;;;;;5087605;28;20449;-73
2022/09/10 09:58:32;;;;;;;1.43;0.60;;;;;;;;;;5087783;28;20544;-73
2022/09/10 10:01:12;;;;;;;0.83;0.50;;;;;;;;;;5087237;28;21069;-73
2022/09/10 10:03:47;;;;;;;3.37;1.00;;;;;;;;;;5087869;28;20530;-73
2022/09/10 10:06:14;;;;;;;2.73;0.67;;;;;;;;;;5087589;28;20456;-72
2022/09/10 10:08:44;;;;;;;0.90;0.50;;;;;;;;;;5087175;28;20455;-73
2022/09/10 10:11:14;;;;;;;1.07;0.70;;;;;;;;;;5087606;28;20994;-73
2022/09/10 10:13:42;;;;;;;4.70;1.10;;;17.10;99.90;;;;;;5087873;28;20455;-73
2022/09/10 10:16:19;;;;;;;2.50;1.47;;;18.60;1.00;;;;;;5086959;28;20453;-73
2022/09/10 10:18:46;;;;;;;0.67;0.47;;;18.60;1.00;;;;;;5087804;28;20490;-73
2022/09/10 10:21:20;;;;;;;1.97;0.93;;;18.90;1.00;;;;;;5086969;28;20455;-73
2022/09/10 10:23:47;;;;;;;1.73;1.07;;;18.80;1.00;;;;;;5087261;28;20477;-73
2022/09/10 10:26:29;;;;;;;1.73;0.60;;;18.80;1.00;;;;;;5086424;28;20480;-73
2022/09/10 10:28:59;;;;;;;1.83;0.60;;;18.90;1.00;;;;;;5073847;28;20457;-73
2022/09/10 10:31:38;;;;;;;1.13;0.70;;;18.70;1.00;;;;;;5088406;28;20453;-73
2022/09/10 10:34:34;;;;;;;1.13;0.60;;;18.60;1.00;;;;;;5087040;28;20457;-73
2022/09/10 10:37:08;;;;;;;0.60;0.50;;;18.80;1.00;;;;;;5078077;28;20449;-73
2022/09/10 10:39:52;;;;;;;1.23;0.87;;;19.10;1.00;;;;;;5087690;28;20456;-73
2022/09/10 10:42:25;;;;;;;2.50;0.73;;;19.30;1.00;;;;;;5087971;28;20445;-73
2022/09/10 10:45:04;;;;;;;1.00;0.50;;;19.10;1.00;;;;;;5090982;28;20810;-73
2022/09/10 10:47:44;;;;;;;0.70;0.50;;;19.10;1.00;;;;;;5091143;28;20467;-73
2022/09/10 10:50:24;;;;;;;1.67;0.60;;;19.10;1.00;;;;;;5090894;28;20971;-73
2022/09/10 10:53:10;;;;;;;0.80;0.60;;;19.20;1.00;;;;;;5091751;28;21261;-73
2022/09/10 10:55:41;;;;;;;1.77;0.70;;;19.60;99.90;;;;;;5091760;28;20506;-74
2022/09/10 10:58:28;;;;;;;1.17;0.60;;;19.70;99.90;;;;;;5090687;28;20453;-73
2022/09/10 11:01:05;;;;;;;0.90;0.60;;;19.90;99.90;;;;;;5090626;28;20452;-73
2022/09/10 11:03:41;;;;;;;0.70;0.50;;;19.90;99.90;;;;;;5091123;28;21010;-73
2022/09/10 11:06:13;;;;;;;2.60;0.70;;;19.80;99.90;;;;;;5085527;28;20947;-72
2022/09/10 11:08:45;;;;;;;2.13;1.47;;;19.90;99.90;;;;;;5090095;28;20962;-73
2022/09/10 11:11:18;;;;;;;0.80;0.60;;;20.10;99.90;;;;;;5092311;28;20995;-74
2022/09/10 11:13:53;;;;;;;1.17;0.50;;;20.20;99.90;;;;;;5092332;28;20456;-72
2022/09/10 11:16:25;;;;;;;0.80;0.60;;;20.20;99.90;;;;;;5091719;28;20444;-72
2022/09/10 11:18:56;;;;;;;0.77;0.50;;;20.10;99.90;;;;;;5090028;28;20445;-72
2022/09/10 11:21:30;;;;;;;0.90;0.60;;;20.40;99.90;;;;;;5084644;28;20455;-73
2022/09/10 11:24:00;;;;;;;1.00;0.50;;;20.60;99.90;;;;;;5079380;28;20819;-72
2022/09/10 11:26:33;;;;;;;0.90;0.50;;;20.70;99.90;;;;;;5091738;28;20495;-73
2022/09/10 11:29:13;;;;;;;2.10;0.57;;;20.90;99.90;;;;;;5089199;28;20444;-72
2022/09/10 11:31:42;;;;;;;3.20;1.00;;;;;;;;;;5090448;28;20470;-72
2022/09/10 11:34:12;;;;;;;3.37;0.70;;;;;;;;;;5090794;28;20452;-72
2022/09/10 11:36:41;;;;;;;1.10;0.50;;;;;;;;;;5091709;28;20452;-72
2022/09/10 11:39:15;;;;;;;0.80;0.60;;;;;;;;;;5083392;28;20449;-73
2022/09/10 11:41:43;;;;;;;1.17;0.50;;;;;;;;;;5091695;28;20448;-73
2022/09/10 11:44:22;;;;;;;0.90;0.67;;;;;;;;;;5091035;28;20484;-72
2022/09/10 11:46:55;;;;;;;2.87;0.60;;;;;;;;;;5089532;28;20436;-73
2022/09/10 11:49:25;;;;;;;0.90;0.80;;;;;;;;;;5078527;28;20445;-73
2022/09/10 11:51:52;;;;;;;2.93;1.37;;;20.90;99.90;;;;;;5093147;28;20448;-73
2022/09/10 11:54:26;;;;;;;2.00;0.70;;;19.70;99.90;;;;;;5089636;28;20963;-73
2022/09/10 11:57:01;;;;;;;2.17;0.80;;;19.80;99.90;;;;;;5089631;28;20444;-72
2022/09/10 11:59:58;;;;;;;1.83;0.53;;;19.80;99.90;;;;;;5091254;28;20543;-72
2022/09/10 12:03:12;;;;;;;3.33;0.77;;;20.10;99.90;;;;;;5088384;28;20449;-73
2022/09/10 12:05:53;;;;;;;2.00;0.80;;;20.50;99.90;;;;;;5091724;28;21017;-72
2022/09/10 12:08:33;;;;;;;2.47;0.93;;;20.50;99.90;;;;;;5091691;28;20440;-73
2022/09/10 12:11:12;;;;;;;1.13;1.00;;;20.80;99.90;;;;;;5078067;28;20448;-73
2022/09/10 12:13:40;;;;;;;1.20;0.60;;;20.50;99.90;;;;;;5091058;28;20448;-72
2022/09/10 12:16:19;;;;;;;2.20;1.43;;;20.40;99.90;;;;;;5090634;28;20449;-73
2022/09/10 12:18:50;;;;;;;0.60;0.40;;;20.40;99.90;;;;;;5091081;28;20578;-73
2022/09/10 12:21:27;;;;;;;0.80;0.70;;;20.30;99.90;;;;;;5091110;28;20445;-73
2022/09/10 12:23:55;;;;;;;1.23;0.80;;;20.20;99.90;;;;;;5077485;28;20480;-72
2022/09/10 12:26:23;;;;;;;1.30;0.80;;;20.00;99.90;;;;;;5091066;28;20538;-72
2022/09/10 12:29:00;;;;;;;1.00;0.70;;;19.90;99.90;;;;;;5089258;28;20449;-72
2022/09/10 12:31:48;;;;;;;1.30;0.83;;;19.80;99.90;;;;;;5090587;28;20532;-73
2022/09/10 12:34:18;;;;;;;0.90;0.70;;;19.90;99.90;;;;;;5089836;28;20563;-73
2022/09/10 12:37:23;;;;;;;1.50;0.70;;;20.00;99.90;;;;;;5090619;28;20536;-72
2022/09/10 12:40:28;;;;;;;2.37;0.83;;;20.40;99.90;;;;;;5091301;28;20425;-73
2022/09/10 12:42:59;;;;;;;0.80;0.50;;;20.50;99.90;;;;;;5089727;28;20461;-73
2022/09/10 12:46:01;;;;;;;1.40;0.83;;;20.30;99.90;;;;;;5090686;28;20468;-73
2022/09/10 12:48:30;;;;;;;0.80;0.60;;;20.30;99.90;;;;;;5079477;28;20447;-73
2022/09/10 12:50:59;;;;;;;2.10;0.80;;;;;;;;;;5090469;28;20521;-73
2022/09/10 12:53:41;;;;;;;0.80;0.70;;;;;;;;;;5087350;28;20461;-73
2022/09/10 12:56:22;;;;;;;0.60;0.50;;;;;;;;;;5086804;28;20479;-73
2022/09/10 12:58:55;;;;;;;0.70;0.50;;;;;;;;;;5090240;28;20440;-73
2022/09/10 13:01:30;;;;;;;1.57;0.50;;;;;;;;;;5090671;28;20541;-73
2022/09/10 13:04:01;;;;;;;0.60;0.47;;;;;;;;;;5089922;28;20891;-73
2022/09/10 13:06:39;;;;;;;1.43;1.10;;;;;;;;;;5089286;28;20552;-75
2022/09/10 13:09:17;;;;;;;1.07;0.67;;;;;;;;;;5088475;28;20531;-73
2022/09/10 13:11:46;;;;;;;1.90;1.37;;;;;;;;;;5084525;28;20804;-73
2022/09/10 13:14:17;;;;;;;1.00;0.70;;;;;;;;;;5089818;28;20459;-72
2022/09/10 13:16:44;;;;;;;1.93;0.63;;;;;;;;;;5089734;28;20520;-73
2022/09/10 13:19:30;;;;;;;1.73;0.60;;;;;;;;;;5089492;28;20820;-72
2022/09/10 13:21:59;;;;;;;1.63;0.83;;;;;;;;;;5089066;28;21020;-72
2022/09/10 13:24:59;;;;;;;0.90;0.70;;;;;;;;;;5090017;28;20488;-72
2022/09/10 13:27:36;;;;;;;1.97;0.90;;;;;;;;;;5084315;28;20545;-72
2022/09/10 13:30:10;;;;;;;1.87;0.70;;;;;;;;;;5089271;28;20471;-72
2022/09/10 13:32:40;;;;;;;1.80;0.70;;;;;;;;;;5091179;28;20447;-72
2022/09/10 13:35:20;;;;;;;1.30;0.70;;;;;;;;;;5090656;28;20966;-72
2022/09/10 13:38:09;;;;;;;0.90;0.60;;;;;;;;;;5090692;28;20440;-72
2022/09/10 13:41:01;;;;;;;1.73;0.40;;;;;;;;;;5081728;28;20448;-73
2022/09/10 13:43:43;;;;;;;1.00;0.60;;;;;;;;;;5065240;28;20532;-72
2022/09/10 13:46:13;;;;;;;0.90;0.63;;;;;;;;;;5076018;28;20939;-72
2022/09/10 13:48:44;;;;;;;2.07;0.70;;;;;;;;;;5089239;28;20437;-71
2022/09/10 13:51:17;;;;;;;1.03;0.60;;;;;;;;;;5088451;28;20554;-72
2022/09/10 13:53:47;;;;;;;0.90;0.57;;;;;;;;;;5088914;28;20449;-72
2022/09/10 13:56:17;;;;;;;0.90;0.60;;;;;;;;;;5088282;28;20925;-72
2022/09/10 13:58:47;;;;;;;0.97;0.60;;;;;;;;;;5087907;28;20944;-72
2022/09/10 14:01:14;;;;;;;1.50;0.60;;;;;;;;;;5074666;28;20445;-72
2022/09/10 14:03:43;;;;;;;0.70;0.50;;;;;;;;;;5084996;28;20476;-72
2022/09/10 14:06:12;;;;;;;1.00;0.60;;;;;;;;;;5083812;28;20457;-73
2022/09/10 14:08:43;;;;;;;0.90;0.60;;;20.20;99.90;;;;;;5087234;28;20834;-68
2022/09/10 14:11:19;;;;;;;1.40;1.03;;;;;;;;;;5088860;28;20811;-72
2022/09/10 14:13:50;;;;;;;1.30;0.90;;;;;;;;;;5090831;28;20444;-71
2022/09/10 14:16:19;;;;;;;0.80;0.63;;;;;;;;;;5091143;28;20437;-71
2022/09/10 14:18:48;;;;;;;1.37;0.70;;;;;;;;;;5089965;28;20817;-71
2022/09/10 14:21:15;;;;;;;2.83;1.10;;;;;;;;;;5090467;28;20468;-71